Time;durP1;ratioP1;P1;durP2;ratioP2;P2;SDS_P1;SDS_P2;PMS_P1;PMS_P2;Temp;Humidity;BMP_temperature;BMP_pressure;BME280_temperature;BME280_humidity;BME280_pressure;Samples;Min_cycle;Max_cycle;Signal;HPM_P1;HPM_P2
2023/01/11 00:01:52;;;;;;;;;;;;;;;;;;5048316;28;19924;-54
2023/01/11 00:04:18;;;;;;;;;;;;;;;;;;5066408;28;19931;-55
2023/01/11 00:06:44;;;;;;;;;;;;;;;;;;5064963;28;19924;-54
2023/01/11 00:09:10;;;;;;;;;;;;;;;;;;5066096;28;20442;-54
2023/01/11 00:11:36;;;;;;;;;;;;;;;;;;5065226;28;19924;-52
2023/01/11 00:14:02;;;;;;;;;;;;;;;;;;5066067;28;20074;-52
2023/01/11 00:16:28;;;;;;;;;;;;;;;;;;5066432;28;20386;-51
2023/01/11 00:18:54;;;;;;;;;;;;;;;;;;5066279;28;19933;-51
2023/01/11 00:21:21;;;;;;;;;;;;;;;;;;5064811;28;19935;-52
2023/01/11 00:23:47;;;;;;;;;;;;;;;;;;5065494;28;19970;-51
2023/01/11 00:26:13;;;;;;;;;;;;;;;;;;5065805;28;19928;-54
2023/01/11 00:28:39;;;;;;;;;;;;;;;;;;5047092;28;19924;-50
2023/01/11 00:31:05;;;;;;;;;;;;;;;;;;5065660;28;20011;-53
2023/01/11 00:33:31;;;;;;;;;;;;;;;;;;5065419;28;20357;-50
2023/01/11 00:35:57;;;;;;;;;;;;;;;;;;5065305;28;19931;-53
2023/01/11 00:49:21;;;;;;;;;;;;;;;;;;5065093;28;19924;-49
2023/01/11 00:51:47;;;;;;;;;;;;;;;;;;5064291;28;20016;-53
2023/01/11 00:54:13;;;;;;;;;;;;;;;;;;5065295;28;19920;-51
2023/01/11 00:56:39;;;;;;;;;;;;;;;;;;5065099;28;19947;-52
2023/01/11 00:59:05;;;;;;;;;;;;;;;;;;5065307;28;19925;-52
2023/01/11 01:01:31;;;;;;;;;;;;;;;;;;5065072;28;19977;-50
2023/01/11 01:03:57;;;;;;;;;;;;;;;;;;5064618;28;20267;-53
2023/01/11 01:06:23;;;;;;;;;;;;;;;;;;5064777;28;19924;-53
2023/01/11 01:08:49;;;;;;;;;;;;;;;;;;5064511;28;19935;-55
2023/01/11 01:11:15;;;;;;;;;;;;;;;;;;5065661;28;20588;-51
2023/01/11 01:16:26;;;;;;;;;;;;;;;;;;5064874;28;20040;-54
2023/01/11 01:18:55;;;;;;;;;;;;;;;;;;5064685;28;20392;-55
2023/01/11 01:21:21;;;;;;;;;;;;;;;;;;5064115;28;19929;-55
2023/01/11 01:23:47;;;;;;;;;;;;;;;;;;5064585;28;20418;-55
2023/01/11 01:26:13;;;;;;;;;;;;;;;;;;5064727;28;19931;-53
2023/01/11 01:28:39;;;;;;;;;;;;;;;;;;5064913;28;19920;-52
2023/01/11 01:31:05;;;;;;;;;;;;;;;;;;5064932;28;20005;-52
2023/01/11 01:33:31;;;;;;;;;;;;;;;;;;5064191;28;19950;-53
2023/01/11 01:35:57;;;;;;;;;;;;;;;;;;5064209;28;19947;-54
2023/01/11 01:38:23;;;;;;;;;;;;;;;;;;5064939;28;19925;-53
2023/01/11 01:40:50;;;;;;;;;;;;;;;;;;5064776;28;20402;-53
2023/01/11 01:43:16;;;;;;;;;;;;;;;;;;5064298;28;20031;-53
2023/01/11 01:45:42;;;;;;;;;;;;;;;;;;5066461;28;19964;-51
2023/01/11 01:48:08;;;;;;;;;;;;;;;;;;5068673;28;19924;-54
2023/01/11 01:50:34;;;;;;;;;;;;;;;;;;5049635;28;20281;-50
2023/01/11 01:53:00;;;;;;;;;;;;;;;;;;5067812;28;19928;-53
2023/01/11 01:55:26;;;;;;;;;;;;;;;;;;5068740;28;19929;-52
2023/01/11 01:57:52;;;;;;;;;;;;;;;;;;5068061;28;19931;-53
2023/01/11 02:00:18;;;;;;;;;;;;;;;;;;5068763;28;20003;-52
2023/01/11 02:02:44;;;;;;;;;;;;;;;;;;5068409;28;20058;-51
2023/01/11 02:05:10;;;;;;;;;;;;;;;;;;5067388;28;20390;-56
2023/01/11 02:07:36;;;;;;;;;;;;;;;;;;5068225;28;20007;-55
2023/01/11 02:10:03;;;;;;;;;;;;;;;;;;5067637;28;19930;-56
2023/01/11 02:15:13;;;;;;;;;;;;;;;;;;5099208;22;19924;-58
2023/01/11 02:17:39;;;;;;;;;;;;;;;;;;5088056;28;20392;-56
2023/01/11 02:20:05;;;;;;;;;;;;;;;;;;5075873;28;19924;-57
2023/01/11 02:22:31;;;;;;;;;;;;;;;;;;5082389;28;19924;-55
2023/01/11 02:24:57;;;;;;;;;;;;;;;;;;5081070;28;20019;-58
2023/01/11 02:27:23;;;;;;;;;;;;;;;;;;5089250;28;19924;-57
2023/01/11 02:29:49;;;;;;;;;;;;;;;;;;5088986;28;20019;-59
2023/01/11 02:32:15;;;;;;;;;;;;;;;;;;5074182;28;20012;-58
2023/01/11 02:34:41;;;;;;;;;;;;;;;;;;5088889;28;19979;-58
2023/01/11 02:37:07;;;;;;;;;;;;;;;;;;5088387;28;19923;-57
2023/01/11 02:39:34;;;;;;;;;;;;;;;;;;5086282;28;19977;-58
2023/01/11 02:45:00;;;;;;;;;;;;;;;;;;5084673;28;19970;-59
2023/01/11 02:47:26;;;;;;;;;;;;;;;;;;5076829;28;19966;-58
2023/01/11 02:49:52;;;;;;;;;;;;;;;;;;5075912;28;20331;-58
2023/01/11 02:52:19;;;;;;;;;;;;;;;;;;5071184;28;20463;-53
2023/01/11 02:54:45;;;;;;;;;;;;;;;;;;5076825;28;19924;-58
2023/01/11 02:57:11;;;;;;;;;;;;;;;;;;5088093;28;19934;-56
2023/01/11 02:59:37;;;;;;;;;;;;;;;;;;5081435;28;19975;-53
2023/01/11 03:02:03;;;;;;;;;;;;;;;;;;5067689;28;19959;-58
2023/01/11 03:04:29;;;;;;;;;;;;;;;;;;5071976;28;20289;-55
2023/01/11 03:06:55;;;;;;;;;;;;;;;;;;5086819;28;19924;-56
2023/01/11 03:09:21;;;;;;;;;;;;;;;;;;5088166;28;19928;-56
2023/01/11 03:14:32;;;;;;;;;;;;;;;;;;5087354;28;20398;-56
2023/01/11 03:16:58;;;;;;;;;;;;;;;;;;5079494;28;20569;-53
2023/01/11 03:19:24;;;;;;;;;;;;;;;;;;5067592;28;19935;-59
2023/01/11 03:21:50;;;;;;;;;;;;;;;;;;5073423;28;20327;-57
2023/01/11 03:24:16;;;;;;;;;;;;;;;;;;5087708;28;19924;-58
2023/01/11 03:26:42;;;;;;;;;;;;;;;;;;5087305;28;19925;-57
2023/01/11 03:29:08;;;;;;;;;;;;;;;;;;5087430;28;20317;-59
2023/01/11 03:31:34;;;;;;;;;;;;;;;;;;5086953;28;19924;-58
2023/01/11 03:34:00;;;;;;;;;;;;;;;;;;5087632;28;20342;-59
2023/01/11 03:36:26;;;;;;;;;;;;;;;;;;5086970;28;20358;-59
2023/01/11 03:38:52;;;;;;;;;;;;;;;;;;5086814;28;19959;-58
2023/01/11 03:41:18;;;;;;;;;;;;;;;;;;5087604;28;19967;-59
2023/01/11 03:43:44;;;;;;;;;;;;;;;;;;5086661;28;19928;-58
2023/01/11 03:46:10;;;;;;;;;;;;;;;;;;5087088;28;20438;-58
2023/01/11 03:48:36;;;;;;;;;;;;;;;;;;5086835;28;19931;-53
2023/01/11 03:51:02;;;;;;;;;;;;;;;;;;5078276;28;19925;-59
2023/01/11 03:53:28;;;;;;;;;;;;;;;;;;5081162;28;19924;-58
2023/01/11 03:55:54;;;;;;;;;;;;;;;;;;5086739;28;20310;-58
2023/01/11 03:58:20;;;;;;;;;;;;;;;;;;5086831;28;19931;-58
2023/01/11 04:00:46;;;;;;;;;;;;;;;;;;5076943;28;19971;-57
2023/01/11 04:03:13;;;;;;;;;;;;;;;;;;5087066;28;19978;-57
2023/01/11 04:05:39;;;;;;;;;;;;;;;;;;5085802;28;19950;-58
2023/01/11 04:08:05;;;;;;;;;;;;;;;;;;5086619;28;19924;-55
2023/01/11 04:10:31;;;;;;;;;;;;;;;;;;5086627;28;19928;-56
2023/01/11 04:12:57;;;;;;;;;;;;;;;;;;5086155;28;19924;-57
2023/01/11 04:15:23;;;;;;;;;;;;;;;;;;5086794;28;19978;-56
2023/01/11 04:17:49;;;;;;;;;;;;;;;;;;5086743;28;19928;-58
2023/01/11 04:20:15;;;;;;;;;;;;;;;;;;5085885;28;20525;-58
2023/01/11 04:22:41;;;;;;;;;;;;;;;;;;5086100;28;19932;-58
2023/01/11 04:25:08;;;;;;;;;;;;;;;;;;5086524;28;20006;-58
2023/01/11 04:27:34;;;;;;;;;;;;;;;;;;5086061;28;19985;-59
2023/01/11 04:30:00;;;;;;;;;;;;;;;;;;5085967;28;19932;-58
2023/01/11 04:32:26;;;;;;;;;;;;;;;;;;5087069;28;19954;-59
2023/01/11 04:34:52;;;;;;;;;;;;;;;;;;5085628;28;20350;-58
2023/01/11 04:37:18;;;;;;;;;;;;;;;;;;5086155;28;19985;-59
2023/01/11 04:39:44;;;;;;;;;;;;;;;;;;5086097;28;19924;-55
2023/01/11 04:42:17;;;;;;;;;;;;;;;;;;5068004;28;20396;-58
2023/01/11 04:44:44;;;;;;;;;;;;;;;;;;5085699;28;19924;-57
2023/01/11 04:47:10;;;;;;;;;;;;;;;;;;5085604;28;19920;-56
2023/01/11 04:49:36;;;;;;;;;;;;;;;;;;5085151;28;20007;-57
2023/01/11 04:52:02;;;;;;;;;;;;;;;;;;5068856;28;20339;-57
2023/01/11 04:54:28;;;;;;;;;;;;;;;;;;5074576;28;20549;-58
2023/01/11 04:56:54;;;;;;;;;;;;;;;;;;5085799;28;20451;-58
2023/01/11 04:59:20;;;;;;;;;;;;;;;;;;5086078;28;19920;-58
2023/01/11 05:01:46;;;;;;;;;;;;;;;;;;5085770;28;20014;-58
2023/01/11 05:04:12;;;;;;;;;;;;;;;;;;5084945;28;20633;-58
2023/01/11 05:06:37;;;;;;;;;;;;;;;;;;5084735;28;19920;-58
2023/01/11 05:09:04;;;;;;;;;;;;;;;;;;5085620;28;19924;-58
2023/01/11 05:11:30;;;;;;;;;;;;;;;;;;5079834;28;19939;-59
2023/01/11 05:13:58;;;;;;;;;;;;;;;;;;5084719;28;19924;-57
2023/01/11 05:16:24;;;;;;;;;;;;;;;;;;5082908;28;20002;-59
2023/01/11 05:18:50;;;;;;;;;;;;;;;;;;5082424;28;20007;-54
2023/01/11 05:21:16;;;;;;;;;;;;;;;;;;5078974;28;20415;-55
2023/01/11 05:23:42;;;;;;;;;;;;;;;;;;5083304;28;19924;-54
2023/01/11 05:26:08;;;;;;;;;;;;;;;;;;5083017;28;19921;-58
2023/01/11 05:28:34;;;;;;;;;;;;;;;;;;5084113;28;19924;-57
2023/01/11 05:31:00;;;;;;;;;;;;;;;;;;5084174;28;20296;-57
2023/01/11 05:33:26;;;;;;;;;;;;;;;;;;5082873;28;20272;-58
2023/01/11 05:35:52;;;;;;;;;;;;;;;;;;5078811;28;19928;-58
2023/01/11 05:38:18;;;;;;;;;;;;;;;;;;5080692;28;20517;-58
2023/01/11 05:40:44;;;;;;;;;;;;;;;;;;5076107;28;19977;-58
2023/01/11 05:43:10;;;;;;;;;;;;;;;;;;5082462;28;19972;-59
2023/01/11 05:45:36;;;;;;;;;;;;;;;;;;5084168;28;19972;-56
2023/01/11 05:48:02;;;;;;;;;;;;;;;;;;5084323;28;20432;-58
2023/01/11 05:50:28;;;;;;;;;;;;;;;;;;5083364;28;20004;-59
2023/01/11 05:52:54;;;;;;;;;;;;;;;;;;5069009;28;20011;-59
2023/01/11 05:55:20;;;;;;;;;;;;;;;;;;5064907;28;19925;-58
2023/01/11 05:57:49;;;;;;;;;;;;;;;;;;5066087;28;20024;-55
2023/01/11 06:00:15;;;;;;;;;;;;;;;;;;5071152;28;20041;-56
2023/01/11 06:02:41;;;;;;;;;;;;;;;;;;5064928;28;20505;-59
2023/01/11 06:05:07;;;;;;;;;;;;;;;;;;5066041;28;19924;-58
2023/01/11 06:07:33;;;;;;;;;;;;;;;;;;5064697;28;20274;-60
2023/01/11 06:09:59;;;;;;;;;;;;;;;;;;5064790;28;19925;-56
2023/01/11 06:12:25;;;;;;;;;;;;;;;;;;5065429;28;19920;-61
2023/01/11 06:14:51;;;;;;;;;;;;;;;;;;5065381;28;19929;-60
2023/01/11 06:17:17;;;;;;;;;;;;;;;;;;5065316;28;19946;-60
2023/01/11 06:19:43;;;;;;;;;;;;;;;;;;5064315;28;20050;-59
2023/01/11 06:22:09;;;;;;;;;;;;;;;;;;5071390;28;19928;-59
2023/01/11 06:24:35;;;;;;;;;;;;;;;;;;5064714;28;20439;-58
2023/01/11 06:27:01;;;;;;;;;;;;;;;;;;5065040;28;19920;-60
2023/01/11 06:29:27;;;;;;;;;;;;;;;;;;5069050;28;20033;-59
2023/01/11 06:31:53;;;;;;;;;;;;;;;;;;5072555;28;19959;-59
2023/01/11 06:34:19;;;;;;;;;;;;;;;;;;5067763;28;20011;-59
2023/01/11 06:36:45;;;;;;;;;;;;;;;;;;5076747;28;20340;-59
2023/01/11 06:39:11;;;;;;;;;;;;;;;;;;5068064;28;19924;-59
2023/01/11 06:41:37;;;;;;;;;;;;;;;;;;5087158;28;19949;-59
2023/01/11 06:44:03;;;;;;;;;;;;;;;;;;5084097;28;19924;-60
2023/01/11 06:46:29;;;;;;;;;;;;;;;;;;5085354;28;20103;-60
2023/01/11 06:48:55;;;;;;;;;;;;;;;;;;5084283;28;20438;-59
2023/01/11 06:51:21;;;;;;;;;;;;;;;;;;5087056;28;19928;-59
2023/01/11 06:53:47;;;;;;;;;;;;;;;;;;5067379;28;20070;-59
2023/01/11 06:56:13;;;;;;;;;;;;;;;;;;5068156;28;20006;-58
2023/01/11 06:58:39;;;;;;;;;;;;;;;;;;5067787;28;20011;-55
2023/01/11 07:01:05;;;;;;;;;;;;;;;;;;5067856;28;20372;-58
2023/01/11 07:03:31;;;;;;;;;;;;;;;;;;5067392;28;19934;-56
2023/01/11 07:05:57;;;;;;;;;;;;;;;;;;5066817;28;20029;-59
2023/01/11 07:08:23;;;;;;;;;;;;;;;;;;5066830;28;19974;-58
2023/01/11 07:10:49;;;;;;;;;;;;;;;;;;5066816;28;20017;-58
2023/01/11 07:13:16;;;;;;;;;;;;;;;;;;5067736;28;20004;-57
2023/01/11 07:15:42;;;;;;;;;;;;;;;;;;5067227;28;20023;-59
2023/01/11 07:18:08;;;;;;;;;;;;;;;;;;5067750;28;20429;-59
2023/01/11 07:20:34;;;;;;;;;;;;;;;;;;5066852;28;19924;-54
2023/01/11 07:23:00;;;;;;;;;;;;;;;;;;5067156;28;20643;-60
2023/01/11 07:25:26;;;;;;;;;;;;;;;;;;5067511;28;19932;-59
2023/01/11 07:27:52;;;;;;;;;;;;;;;;;;5067317;28;20011;-60
2023/01/11 07:30:18;;;;;;;;;;;;;;;;;;5067606;28;20009;-60
2023/01/11 07:32:44;;;;;;;;;;;;;;;;;;5048699;28;20302;-60
2023/01/11 07:35:10;;;;;;;;;;;;;;;;;;5066677;28;19924;-59
2023/01/11 07:37:36;;;;;;;;;;;;;;;;;;5066838;28;19924;-59
2023/01/11 07:40:02;;;;;;;;;;;;;;;;;;5067433;28;19966;-59
2023/01/11 07:45:13;;;;;;;;;;;;;;;;;;5067218;28;19924;-57
2023/01/11 07:47:39;;;;;;;;;;;;;;;;;;5067025;28;19925;-58
2023/01/11 07:50:05;;;;;;;;;;;;;;;;;;5080589;28;20305;-58
2023/01/11 07:52:31;;;;;;;;;;;;;;;;;;5086763;28;19928;-57
2023/01/11 07:55:01;;;;;;;;;;;;;;;;;;5087019;28;19924;-57
2023/01/11 07:57:27;;;;;;;;;;;;;;;;;;5087631;28;19928;-59
2023/01/11 07:59:53;;;;;;;;;;;;;;;;;;5087032;28;19927;-59
2023/01/11 08:02:19;;;;;;;;;;;;;;;;;;5086867;28;20446;-60
2023/01/11 08:04:45;;;;;;;;;;;;;;;;;;5085613;28;19951;-59
2023/01/11 08:07:11;;;;;;;;;;;;;;;;;;5087027;28;19932;-60
2023/01/11 08:09:37;;;;;;;;;;;;;;;;;;5086896;28;19933;-59
2023/01/11 08:14:48;;;;;;;;;;;;;;;;;;5074021;28;19998;-60
2023/01/11 08:17:14;;;;;;;;;;;;;;;;;;5086962;28;20007;-59
2023/01/11 08:19:40;;;;;;;;;;;;;;;;;;5085824;28;19927;-59
2023/01/11 08:22:06;;;;;;;;;;;;;;;;;;5086719;28;19924;-58
2023/01/11 08:24:33;;;;;;;;;;;;;;;;;;5085937;28;20365;-57
2023/01/11 08:26:59;;;;;;;;;;;;;;;;;;5086794;28;19924;-57
2023/01/11 08:29:25;;;;;;;;;;;;;;;;;;5086628;28;19924;-58
2023/01/11 08:31:51;;;;;;;;;;;;;;;;;;5086457;28;19924;-57
2023/01/11 08:34:17;;;;;;;;;;;;;;;;;;5085644;28;20371;-57
2023/01/11 08:36:43;;;;;;;;;;;;;;;;;;5086358;28;19925;-56
2023/01/11 08:39:09;;;;;;;;;;;;;;;;;;5086329;28;19924;-57
2023/01/11 08:41:37;;;;;;;;;;;;;;;;;;5085387;28;19928;-57
2023/01/11 08:44:03;;;;;;;;;;;;;;;;;;5086233;28;19964;-58
2023/01/11 08:46:29;;;;;;;;;;;;;;;;;;5086004;28;19981;-54
2023/01/11 08:48:55;;;;;;;;;;;;;;;;;;5071291;28;19924;-56
2023/01/11 08:51:21;;;;;;;;;;;;;;;;;;5077102;28;19928;-59
2023/01/11 08:53:47;;;;;;;;;;;;;;;;;;5085399;28;20280;-59
2023/01/11 08:56:13;;;;;;;;;;;;;;;;;;5085931;28;19931;-59
2023/01/11 08:58:39;;;;;;;;;;;;;;;;;;5084879;28;19924;-58
2023/01/11 09:01:07;;;;;;;;;;;;;;;;;;5086604;28;19924;-59
2023/01/11 09:03:33;;;;;;;;;;;;;;;;;;5085490;28;19924;-59
2023/01/11 09:05:59;;;;;;;;;;;;;;;;;;5085176;28;19928;-58
2023/01/11 09:08:25;;;;;;;;;;;;;;;;;;5086287;28;19924;-58
2023/01/11 09:10:51;;;;;;;;;;;;;;;;;;5085431;28;19928;-55
2023/01/11 09:13:18;;;;;;;;;;;;;;;;;;5085502;28;20289;-57
2023/01/11 09:15:45;;;;;;;;;;;;;;;;;;5084713;28;20384;-57
2023/01/11 09:18:11;;;;;;;;;;;;;;;;;;5085840;28;20289;-54
2023/01/11 09:20:37;;;;;;;;;;;;;;;;;;5084511;28;20549;-59
2023/01/11 09:23:03;;;;;;;;;;;;;;;;;;5085663;28;20493;-59
2023/01/11 09:25:29;;;;;;;;;;;;;;;;;;5085350;28;20011;-57
2023/01/11 09:27:55;;;;;;;;;;;;;;;;;;5085773;28;19928;-59
2023/01/11 09:30:21;;;;;;;;;;;;;;;;;;5085604;28;20429;-59
2023/01/11 09:32:47;;;;;;;;;;;;;;;;;;5084529;28;20027;-58
2023/01/11 09:35:15;;;;;;;;;;;;;;;;;;5084896;28;19924;-59
2023/01/11 09:37:44;;;;;;;;;;;;;;;;;;5085624;28;20280;-57
2023/01/11 09:40:10;;;;;;;;;;;;;;;;;;5085431;28;19925;-59
2023/01/11 09:42:38;;;;;;;;;;;;;;;;;;5084867;28;20019;-59
2023/01/11 09:45:05;;;;;;;;;;;;;;;;;;5085191;28;19947;-58
2023/01/11 09:47:32;;;;;;;;;;;;;;;;;;5084808;28;20479;-58
2023/01/11 09:49:58;;;;;;;;;;;;;;;;;;5071058;28;19924;-56
2023/01/11 09:52:25;;;;;;;;;;;;;;;;;;5084698;28;19963;-55
2023/01/11 09:54:51;;;;;;;;;;;;;;;;;;5085667;28;19931;-59
2023/01/11 09:57:17;;;;;;;;;;;;;;;;;;5085589;28;19924;-57
2023/01/11 09:59:47;;;;;;;;;;;;;;;;;;5085102;28;19924;-59
2023/01/11 10:02:14;;;;;;;;;;;;;;;;;;5085397;28;20376;-59
2023/01/11 10:04:40;;;;;;;;;;;;;;;;;;5083669;28;20385;-59
2023/01/11 10:07:09;;;;;;;;;;;;;;;;;;5087691;28;19946;-60
2023/01/11 10:09:35;;;;;;;;;;;;;;;;;;5089007;28;19931;-57
2023/01/11 10:12:03;;;;;;;;;;;;;;;;;;5089668;28;20316;-58
2023/01/11 10:14:29;;;;;;;;;;;;;;;;;;5088981;28;19924;-56
2023/01/11 10:16:58;;;;;;;;;;;;;;;;;;5089330;28;19932;-58
2023/01/11 10:19:25;;;;;;;;;;;;;;;;;;5087531;28;21265;-58
2023/01/11 10:21:53;;;;;;;;;;;;;;;;;;5088736;28;20377;-58
2023/01/11 10:24:20;;;;;;;;;;;;;;;;;;5088816;28;19934;-59
2023/01/11 10:26:46;;;;;;;;;;;;;;;;;;5088614;28;19927;-56
2023/01/11 10:32:07;;;;;;;;;;;;;;;;;;5070193;28;19920;-54
2023/01/11 10:37:17;;;;;;;;;;;;;;;;;;5088714;28;19920;-56
2023/01/11 10:42:18;;;;;;;;;;;;;;;;;;5088271;28;19936;-59
2023/01/11 10:44:46;;;;;;;;;;;;;;;;;;5088020;28;20382;-60
2023/01/11 10:47:12;;;;;;;;;;;;;;;;;;5088362;28;19926;-59
2023/01/11 10:49:37;;;;;;;;;;;;;;;;;;5076739;28;19928;-55
2023/01/11 10:52:04;;;;;;;;;;;;;;;;;;5084724;28;20032;-60
2023/01/11 10:54:32;;;;;;;;;;;;;;;;;;5088320;28;19953;-58
2023/01/11 10:56:58;;;;;;;;;;;;;;;;;;5087965;28;19924;-54
2023/01/11 10:59:24;;;;;;;;;;;;;;;;;;5088445;28;19920;-56
2023/01/11 11:01:50;;;;;;;;;;;;;;;;;;5069664;28;19924;-57
2023/01/11 11:04:16;;;;;;;;;;;;;;;;;;5087358;28;20033;-59
2023/01/11 11:06:42;;;;;;;;;;;;;;;;;;5088204;28;20061;-59
2023/01/11 11:09:08;;;;;;;;;;;;;;;;;;5088112;28;19976;-54
2023/01/11 11:11:34;;;;;;;;;;;;;;;;;;5088056;28;20335;-59
2023/01/11 11:14:00;;;;;;;;;;;;;;;;;;5087352;28;19924;-59
2023/01/11 11:16:26;;;;;;;;;;;;;;;;;;5088248;28;19925;-59
2023/01/11 11:18:52;;;;;;;;;;;;;;;;;;5087225;28;19969;-56
2023/01/11 11:21:18;;;;;;;;;;;;;;;;;;5088073;28;19924;-58
2023/01/11 11:23:44;;;;;;;;;;;;;;;;;;5087620;28;19931;-59
2023/01/11 11:26:10;;;;;;;;;;;;;;;;;;5087879;28;19924;-59
2023/01/11 11:28:36;;;;;;;;;;;;;;;;;;5087467;28;20561;-59
2023/01/11 11:31:02;;;;;;;;;;;;;;;;;;5087197;28;19959;-54
2023/01/11 11:33:28;;;;;;;;;;;;;;;;;;5086790;28;19987;-59
2023/01/11 11:35:55;;;;;;;;;;;;;;;;;;5088048;28;20570;-59
2023/01/11 11:38:21;;;;;;;;;;;;;;;;;;5087627;28;20006;-60
2023/01/11 11:40:47;;;;;;;;;;;;;;;;;;5086998;28;20011;-60
2023/01/11 11:43:13;;;;;;;;;;;;;;;;;;5087170;28;19930;-54
2023/01/11 11:45:39;;;;;;;;;;;;;;;;;;5087191;28;20379;-60
2023/01/11 11:48:05;;;;;;;;;;;;;;;;;;5086930;28;19920;-54
2023/01/11 11:50:31;;;;;;;;;;;;;;;;;;5053355;28;20377;-60
2023/01/11 11:52:57;;;;;;;;;;;;;;;;;;5085118;28;19973;-60
2023/01/11 11:55:23;;;;;;;;;;;;;;;;;;5082382;28;19932;-60
2023/01/11 11:57:49;;;;;;;;;;;;;;;;;;5084985;28;19928;-60
2023/01/11 12:00:16;;;;;;;;;;;;;;;;;;5085539;28;19988;-56
2023/01/11 12:02:41;;;;;;;;;;;;;;;;;;5084696;28;20316;-58
2023/01/11 12:05:07;;;;;;;;;;;;;;;;;;5085183;28;19928;-57
2023/01/11 12:07:33;;;;;;;;;;;;;;;;;;5079830;28;19949;-57
2023/01/11 12:09:59;;;;;;;;;;;;;;;;;;5081429;28;20385;-54
2023/01/11 12:12:26;;;;;;;;;;;;;;;;;;5082222;28;20584;-59
2023/01/11 12:14:51;;;;;;;;;;;;;;;;;;5048358;28;19928;-58
2023/01/11 12:17:17;;;;;;;;;;;;;;;;;;5066336;28;19932;-57
2023/01/11 12:19:44;;;;;;;;;;;;;;;;;;5065384;28;19960;-57
2023/01/11 12:22:10;;;;;;;;;;;;;;;;;;5066126;28;20325;-58
2023/01/11 12:24:36;;;;;;;;;;;;;;;;;;5065184;28;19931;-59
2023/01/11 12:27:02;;;;;;;;;;;;;;;;;;5065994;28;19928;-60
2023/01/11 12:29:29;;;;;;;;;;;;;;;;;;5048046;28;19924;-60
2023/01/11 12:31:55;;;;;;;;;;;;;;;;;;5066011;28;19932;-59
2023/01/11 12:34:21;;;;;;;;;;;;;;;;;;5065469;28;19969;-57
2023/01/11 12:36:50;;;;;;;;;;;;;;;;;;5065652;28;20015;-57
2023/01/11 12:39:17;;;;;;;;;;;;;;;;;;5064982;28;19971;-60
2023/01/11 12:41:43;;;;;;;;;;;;;;;;;;5075017;28;20408;-59
2023/01/11 12:44:09;;;;;;;;;;;;;;;;;;5066545;28;19925;-59
2023/01/11 12:46:35;;;;;;;;;;;;;;;;;;5068963;28;20287;-57
2023/01/11 12:49:01;;;;;;;;;;;;;;;;;;5065164;28;19928;-56
2023/01/11 12:51:27;;;;;;;;;;;;;;;;;;5078051;28;20392;-58
2023/01/11 12:53:53;;;;;;;;;;;;;;;;;;5085334;28;19924;-59
2023/01/11 12:56:19;;;;;;;;;;;;;;;;;;5086516;28;19935;-59
2023/01/11 12:58:45;;;;;;;;;;;;;;;;;;5084929;28;20289;-60
2023/01/11 13:01:11;;;;;;;;;;;;;;;;;;5086076;28;19924;-59
2023/01/11 13:03:37;;;;;;;;;;;;;;;;;;5079123;28;19939;-59
2023/01/11 13:06:03;;;;;;;;;;;;;;;;;;5077446;28;20254;-57
2023/01/11 13:08:29;;;;;;;;;;;;;;;;;;5065071;28;20411;-59
2023/01/11 13:10:55;;;;;;;;;;;;;;;;;;5065871;28;19931;-59
2023/01/11 13:13:21;;;;;;;;;;;;;;;;;;5066136;28;19925;-55
2023/01/11 13:15:48;;;;;;;;;;;;;;;;;;5065539;28;19924;-59
2023/01/11 13:18:14;;;;;;;;;;;;;;;;;;5068329;28;19925;-56
2023/01/11 13:20:40;;;;;;;;;;;;;;;;;;5070966;28;20389;-58
2023/01/11 13:23:06;;;;;;;;;;;;;;;;;;5075164;28;19931;-60
2023/01/11 13:25:32;;;;;;;;;;;;;;;;;;5074170;28;19954;-60
2023/01/11 13:27:58;;;;;;;;;;;;;;;;;;5067871;28;19994;-59
2023/01/11 13:30:24;;;;;;;;;;;;;;;;;;5065998;28;20061;-58
2023/01/11 13:32:50;;;;;;;;;;;;;;;;;;5065434;28;19955;-60
2023/01/11 13:35:16;;;;;;;;;;;;;;;;;;5064223;28;19929;-54
2023/01/11 13:37:42;;;;;;;;;;;;;;;;;;5064277;28;19932;-59
2023/01/11 13:40:08;;;;;;;;;;;;;;;;;;5064911;28;19924;-57
2023/01/11 13:42:34;;;;;;;;;;;;;;;;;;5064939;28;20422;-60
2023/01/11 13:45:00;;;;;;;;;;;;;;;;;;5071836;28;20444;-58
2023/01/11 13:47:26;;;;;;;;;;;;;;;;;;5065984;28;19928;-58
2023/01/11 13:49:52;;;;;;;;;;;;;;;;;;5075818;28;19981;-58
2023/01/11 13:52:18;;;;;;;;;;;;;;;;;;5065932;28;19928;-60
2023/01/11 13:54:44;;;;;;;;;;;;;;;;;;5075369;28;20011;-60
2023/01/11 13:57:10;;;;;;;;;;;;;;;;;;5073528;28;19963;-57
2023/01/11 13:59:36;;;;;;;;;;;;;;;;;;5076803;28;19924;-60
2023/01/11 14:02:02;;;;;;;;;;;;;;;;;;5065627;28;19931;-56
2023/01/11 14:04:28;;;;;;;;;;;;;;;;;;5065590;28;19928;-60
2023/01/11 14:06:54;;;;;;;;;;;;;;;;;;5066075;28;19967;-58
2023/01/11 14:09:20;;;;;;;;;;;;;;;;;;5081560;28;19931;-60
2023/01/11 14:11:46;;;;;;;;;;;;;;;;;;5074235;28;19925;-57
2023/01/11 14:14:12;;;;;;;;;;;;;;;;;;5062944;28;19933;-59
2023/01/11 14:16:38;;;;;;;;;;;;;;;;;;5064728;28;19977;-58
2023/01/11 14:19:04;;;;;;;;;;;;;;;;;;5046359;28;19925;-59
2023/01/11 14:21:30;;;;;;;;;;;;;;;;;;5073297;28;19931;-59
2023/01/11 14:23:56;;;;;;;;;;;;;;;;;;5082841;28;19967;-56
2023/01/11 14:26:22;;;;;;;;;;;;;;;;;;5066273;28;19986;-58
2023/01/11 14:28:48;;;;;;;;;;;;;;;;;;5064922;28;20680;-59
2023/01/11 14:31:15;;;;;;;;;;;;;;;;;;5064568;28;19933;-59
2023/01/11 14:33:41;;;;;;;;;;;;;;;;;;5079514;28;20019;-59
2023/01/11 14:36:07;;;;;;;;;;;;;;;;;;5069655;28;20019;-56
2023/01/11 14:38:33;;;;;;;;;;;;;;;;;;5064475;28;20353;-58
2023/01/11 14:40:59;;;;;;;;;;;;;;;;;;5065081;28;20429;-58
2023/01/11 14:43:25;;;;;;;;;;;;;;;;;;5065299;28;19924;-60
2023/01/11 14:45:51;;;;;;;;;;;;;;;;;;5063774;28;19968;-58
2023/01/11 14:48:17;;;;;;;;;;;;;;;;;;5062745;28;19928;-59
2023/01/11 14:50:43;;;;;;;;;;;;;;;;;;5069144;28;19977;-59
2023/01/11 14:53:09;;;;;;;;;;;;;;;;;;5086874;28;20039;-59
2023/01/11 14:55:36;;;;;;;;;;;;;;;;;;5088128;28;19963;-56
2023/01/11 14:58:02;;;;;;;;;;;;;;;;;;5088632;28;19932;-59
2023/01/11 15:00:28;;;;;;;;;;;;;;;;;;5079155;28;20003;-57
2023/01/11 15:02:54;;;;;;;;;;;;;;;;;;5075450;28;20297;-58
2023/01/11 15:05:20;;;;;;;;;;;;;;;;;;5074574;28;20485;-59
2023/01/11 15:07:46;;;;;;;;;;;;;;;;;;5068083;28;19932;-55
2023/01/11 15:10:12;;;;;;;;;;;;;;;;;;5067597;28;19999;-57
2023/01/11 15:12:38;;;;;;;;;;;;;;;;;;5068072;28;20054;-57
2023/01/11 15:15:04;;;;;;;;;;;;;;;;;;5068321;28;20841;-59
2023/01/11 15:20:15;;;;;;;;;;;;;;;;;;5067791;28;19925;-55
2023/01/11 15:22:41;;;;;;;;;;;;;;;;;;5067377;28;19924;-58
2023/01/11 15:25:07;;;;;;;;;;;;;;;;;;5067621;28;19924;-57
2023/01/11 15:27:33;;;;;;;;;;;;;;;;;;5068309;28;20058;-60
2023/01/11 15:29:59;;;;;;;;;;;;;;;;;;5075617;28;19931;-58
2023/01/11 15:32:25;;;;;;;;;;;;;;;;;;5079677;28;20288;-59
2023/01/11 15:34:51;;;;;;;;;;;;;;;;;;5077302;28;20454;-59
2023/01/11 15:37:17;;;;;;;;;;;;;;;;;;5067794;28;20550;-58
2023/01/11 15:39:43;;;;;;;;;;;;;;;;;;5069718;28;19931;-59
2023/01/11 15:42:09;;;;;;;;;;;;;;;;;;5066604;28;19931;-59
2023/01/11 15:44:35;;;;;;;;;;;;;;;;;;5066752;28;19943;-58
2023/01/11 15:47:04;;;;;;;;;;;;;;;;;;5067247;28;20631;-55
2023/01/11 15:49:30;;;;;;;;;;;;;;;;;;5066484;28;19924;-58
2023/01/11 15:51:56;;;;;;;;;;;;;;;;;;5083695;28;20908;-57
2023/01/11 15:54:22;;;;;;;;;;;;;;;;;;5087961;28;20358;-59
2023/01/11 15:56:48;;;;;;;;;;;;;;;;;;5087439;28;19924;-53
2023/01/11 15:59:14;;;;;;;;;;;;;;;;;;5086593;28;19920;-59
2023/01/11 16:01:40;;;;;;;;;;;;;;;;;;5087306;28;19928;-55
2023/01/11 16:04:06;;;;;;;;;;;;;;;;;;5085731;28;19924;-58
2023/01/11 16:06:32;;;;;;;;;;;;;;;;;;5087275;28;19931;-59
2023/01/11 16:08:58;;;;;;;;;;;;;;;;;;5087600;28;19924;-59
2023/01/11 16:11:24;;;;;;;;;;;;;;;;;;5087594;28;20006;-59
2023/01/11 16:13:50;;;;;;;;;;;;;;;;;;5086607;28;20416;-59
2023/01/11 16:16:16;;;;;;;;;;;;;;;;;;5086455;28;20015;-58
2023/01/11 16:18:42;;;;;;;;;;;;;;;;;;5086351;28;19920;-55
2023/01/11 16:21:08;;;;;;;;;;;;;;;;;;5086876;28;20019;-59
2023/01/11 16:23:35;;;;;;;;;;;;;;;;;;5086387;28;19924;-56
2023/01/11 16:26:01;;;;;;;;;;;;;;;;;;5084863;28;19924;-58
2023/01/11 16:28:27;;;;;;;;;;;;;;;;;;5081712;28;19920;-59
2023/01/11 16:30:53;;;;;;;;;;;;;;;;;;5078694;28;20344;-60
2023/01/11 16:33:19;;;;;;;;;;;;;;;;;;5083632;28;19932;-59
2023/01/11 16:35:45;;;;;;;;;;;;;;;;;;5085832;28;19920;-59
2023/01/11 16:38:11;;;;;;;;;;;;;;;;;;5070306;28;19932;-58
2023/01/11 16:40:37;;;;;;;;;;;;;;;;;;5076158;28;20010;-54
2023/01/11 16:43:03;;;;;;;;;;;;;;;;;;5077802;28;20608;-59
2023/01/11 16:45:29;;;;;;;;;;;;;;;;;;5072495;28;20004;-58
2023/01/11 16:47:55;;;;;;;;;;;;;;;;;;5066069;28;19929;-57
2023/01/11 16:50:21;;;;;;;;;;;;;;;;;;5068473;28;19931;-57
2023/01/11 16:52:47;;;;;;;;;;;;;;;;;;5085931;28;20391;-59
2023/01/11 16:55:13;;;;;;;;;;;;;;;;;;5077439;28;19924;-59
2023/01/11 16:57:39;;;;;;;;;;;;;;;;;;5065504;28;19932;-59
2023/01/11 17:00:05;;;;;;;;;;;;;;;;;;5065502;28;20418;-56
2023/01/11 17:02:34;;;;;;;;;;;;;;;;;;5065743;28;20354;-55
2023/01/11 17:05:00;;;;;;;;;;;;;;;;;;5066444;28;19924;-58
2023/01/11 17:07:26;;;;;;;;;;;;;;;;;;5065209;28;19924;-57
2023/01/11 17:09:52;;;;;;;;;;;;;;;;;;5065537;28;20501;-59
2023/01/11 17:12:18;;;;;;;;;;;;;;;;;;5065846;28;19967;-57
2023/01/11 17:14:44;;;;;;;;;;;;;;;;;;5065673;28;19931;-56
2023/01/11 17:17:11;;;;;;;;;;;;;;;;;;5066074;28;20373;-59